Time,TemperatureF,DewpointF,PressureIn,WindDirection,WindDirectionDegrees,WindSpeedMPH,WindSpeedGustMPH,Humidity,HourlyPrecipIn,Conditions,Clouds,dailyrainin,SoftwareType,DateUTC
2016-07-26 00:03:00,74.8,72.3,30.05,NNE,14,1.0,1.0,92,0.00,,FEW,0.00,VWS V15.00,2016-07-26 05:03:00,
2016-07-26 00:08:00,74.4,72.2,30.05,NNE,14,1.0,1.0,93,0.00,,FEW,0.00,VWS V15.00,2016-07-26 05:08:00,
2016-07-26 00:13:00,74.3,72.2,30.05,NNE,18,0.0,0.0,93,0.00,,FEW,0.00,VWS V15.00,2016-07-26 05:13:00,
2016-07-26 00:18:00,74.4,72.2,30.05,NE,56,0.0,0.0,93,0.00,,FEW,0.00,VWS V15.00,2016-07-26 05:18:00,
2016-07-26 00:23:00,74.1,72.3,30.05,NE,56,0.0,1.0,94,0.00,,FEW,0.00,VWS V15.00,2016-07-26 05:23:00,
2016-07-26 00:28:00,74.2,72.4,30.05,East,79,2.0,2.0,94,0.00,,FEW,0.00,VWS V15.00,2016-07-26 05:28:00,
2016-07-26 00:32:00,74.8,72.6,30.05,East,79,1.0,1.0,93,0.00,,FEW,0.00,VWS V15.00,2016-07-26 05:32:00,
2016-07-26 00:38:00,74.7,72.6,30.05,NE,51,0.0,1.0,93,0.00,,FEW,0.00,VWS V15.00,2016-07-26 05:38:00,
2016-07-26 00:43:00,74.7,72.6,30.05,NE,51,0.0,1.0,93,0.00,,FEW,0.00,VWS V15.00,2016-07-26 05:43:00,
2016-07-26 00:48:00,74.6,72.4,30.05,NE,51,0.0,0.0,93,0.00,,FEW,0.00,VWS V15.00,2016-07-26 05:48:00,
2016-07-26 00:53:00,74.5,72.7,30.05,NE,51,1.0,1.0,94,0.00,,FEW,0.00,VWS V15.00,2016-07-26 05:53:00,
2016-07-26 00:58:00,74.8,72.6,30.05,NE,51,1.0,1.0,93,0.00,,FEW,0.00,VWS V15.00,2016-07-26 05:58:00,
2016-07-26 01:03:00,74.5,72.3,30.05,NE,51,1.0,1.0,93,0.00,,FEW,0.00,VWS V15.00,2016-07-26 06:03:00,
2016-07-26 01:08:00,74.2,72.4,30.05,NE,51,0.0,1.0,94,0.00,,FEW,0.00,VWS V15.00,2016-07-26 06:08:00,
2016-07-26 01:13:00,74.0,72.2,30.05,NE,51,1.0,1.0,94,0.00,,FEW,0.00,VWS V15.00,2016-07-26 06:13:00,
2016-07-26 01:18:00,73.7,71.9,30.05,NE,51,0.0,0.0,94,0.00,,FEW,0.00,VWS V15.00,2016-07-26 06:18:00,
2016-07-26 01:23:00,73.3,71.5,30.05,NE,51,1.0,1.0,94,0.00,,FEW,0.00,VWS V15.00,2016-07-26 06:23:00,
2016-07-26 01:28:00,73.5,72.3,30.05,NE,51,0.0,1.0,96,0.00,,FEW,0.00,VWS V15.00,2016-07-26 06:28:00,
2016-07-26 01:33:00,73.8,72.6,30.05,NE,51,1.0,1.0,96,0.00,,FEW,0.00,VWS V15.00,2016-07-26 06:33:00,
2016-07-26 01:38:00,73.8,72.3,30.05,NE,51,0.0,1.0,95,0.00,,FEW,0.00,VWS V15.00,2016-07-26 06:38:00,
2016-07-26 01:43:00,73.6,72.1,30.05,NE,51,0.0,0.0,95,0.00,,FEW,0.00,VWS V15.00,2016-07-26 06:43:00,
2016-07-26 01:48:00,73.4,71.9,30.05,NE,51,0.0,0.0,95,0.00,,FEW,0.00,VWS V15.00,2016-07-26 06:48:00,
2016-07-26 01:53:00,73.4,72.2,30.05,NE,51,0.0,0.0,96,0.00,,FEW,0.00,VWS V15.00,2016-07-26 06:53:00,
2016-07-26 01:58:00,73.5,72.3,30.05,NE,51,0.0,0.0,96,0.00,,FEW,0.00,VWS V15.00,2016-07-26 06:58:00,
2016-07-26 02:03:00,73.5,72.3,30.05,NE,51,1.0,1.0,96,0.00,,FEW,0.00,VWS V15.00,2016-07-26 07:03:00,
2016-07-26 02:08:00,73.8,72.6,30.05,NE,53,1.0,1.0,96,0.00,,FEW,0.00,VWS V15.00,2016-07-26 07:08:00,
2016-07-26 02:13:00,73.8,72.3,30.04,ENE,60,1.0,1.0,95,0.00,,FEW,0.00,VWS V15.00,2016-07-26 07:13:00,
2016-07-26 02:18:00,73.7,72.2,30.04,ENE,78,1.0,1.0,95,0.00,,FEW,0.00,VWS V15.00,2016-07-26 07:18:00,
2016-07-26 02:23:00,74.2,72.7,30.04,ENE,71,3.0,3.0,95,0.00,,FEW,0.00,VWS V15.00,2016-07-26 07:23:00,
2016-07-26 02:28:00,74.6,72.8,30.04,East,82,2.0,2.0,94,0.00,,FEW,0.00,VWS V15.00,2016-07-26 07:28:00,
2016-07-26 02:33:00,74.8,72.6,30.03,East,89,1.0,1.0,93,0.00,,FEW,0.00,VWS V15.00,2016-07-26 07:33:00,
2016-07-26 02:38:00,74.7,72.6,30.03,East,94,1.0,2.0,93,0.00,,FEW,0.00,VWS V15.00,2016-07-26 07:38:00,
2016-07-26 02:43:00,74.8,72.6,30.03,ENE,69,0.0,1.0,93,0.00,,FEW,0.00,VWS V15.00,2016-07-26 07:43:00,
2016-07-26 02:48:00,74.9,72.7,30.03,ENE,69,1.0,2.0,93,0.00,,FEW,0.00,VWS V15.00,2016-07-26 07:48:00,
2016-07-26 02:53:00,74.9,72.7,30.02,ENE,69,0.0,1.0,93,0.00,,FEW,0.00,VWS V15.00,2016-07-26 07:53:00,
2016-07-26 02:58:00,74.9,72.7,30.02,ENE,69,0.0,1.0,93,0.00,,FEW,0.00,VWS V15.00,2016-07-26 07:58:00,
2016-07-26 03:03:00,74.8,72.6,30.02,ENE,69,0.0,1.0,93,0.00,,FEW,0.00,VWS V15.00,2016-07-26 08:03:00,
2016-07-26 03:08:00,74.8,72.6,30.02,ENE,69,0.0,1.0,93,0.00,,FEW,0.00,VWS V15.00,2016-07-26 08:08:00,
2016-07-26 03:13:00,74.8,72.6,30.02,NNE,30,2.0,2.0,93,0.00,,FEW,0.00,VWS V15.00,2016-07-26 08:13:00,
2016-07-26 03:18:00,75.1,72.9,30.02,NE,34,1.0,2.0,93,0.00,,FEW,0.00,VWS V15.00,2016-07-26 08:18:00,
2016-07-26 03:23:00,75.1,72.9,30.02,NE,36,4.0,4.0,93,0.00,,FEW,0.00,VWS V15.00,2016-07-26 08:23:00,
2016-07-26 03:28:00,75.1,72.9,30.01,NE,34,3.0,3.0,93,0.00,,FEW,0.00,VWS V15.00,2016-07-26 08:28:00,
2016-07-26 03:33:00,75.0,72.8,30.01,NE,38,2.0,3.0,93,0.00,,FEW,0.00,VWS V15.00,2016-07-26 08:33:00,
2016-07-26 03:38:00,74.9,72.7,30.01,ENE,69,2.0,2.0,93,0.00,,FEW,0.00,VWS V15.00,2016-07-26 08:38:00,
2016-07-26 03:43:00,74.7,72.9,30.01,NE,46,2.0,2.0,94,0.00,,FEW,0.00,VWS V15.00,2016-07-26 08:43:00,
2016-07-26 03:48:00,74.7,72.9,30.01,NE,50,0.0,2.0,94,0.00,,FEW,0.00,VWS V15.00,2016-07-26 08:48:00,
2016-07-26 03:53:00,74.6,72.8,30.02,NE,38,3.0,3.0,94,0.00,,FEW,0.00,VWS V15.00,2016-07-26 08:53:00,
2016-07-26 03:58:00,74.6,72.8,30.02,NE,55,1.0,1.0,94,0.00,,FEW,0.00,VWS V15.00,2016-07-26 08:58:00,